sensor_id;sensor_type;location;lat;lon;timestamp;pressure;altitude;pressure_sealevel;temperature;humidity
56681;BME280;42558;52.388;13.390;2023-04-04T00:01:34;102620.46;;;-1.16;86.71
56681;BME280;42558;52.388;13.390;2023-04-04T00:04:04;102619.23;;;-1.23;86.83
56681;BME280;42558;52.388;13.390;2023-04-04T00:06:34;102614.58;;;-1.29;87.23
56681;BME280;42558;52.388;13.390;2023-04-04T00:09:05;102614.55;;;-1.33;87.55
56681;BME280;42558;52.388;13.390;2023-04-04T00:11:35;102614.23;;;-1.39;87.95
56681;BME280;42558;52.388;13.390;2023-04-04T00:14:05;102612.70;;;-1.38;88.13
56681;BME280;42558;52.388;13.390;2023-04-04T00:16:35;102609.98;;;-1.36;88.06
56681;BME280;42558;52.388;13.390;2023-04-04T00:19:05;102610.02;;;-1.40;87.91
56681;BME280;42558;52.388;13.390;2023-04-04T00:21:35;102612.09;;;-1.43;88.31
56681;BME280;42558;52.388;13.390;2023-04-04T00:24:06;102611.74;;;-1.47;88.39
56681;BME280;42558;52.388;13.390;2023-04-04T00:26:36;102610.39;;;-1.49;88.19
56681;BME280;42558;52.388;13.390;2023-04-04T00:29:06;102611.42;;;-1.54;88.58
56681;BME280;42558;52.388;13.390;2023-04-04T00:31:36;102612.88;;;-1.55;89.11
56681;BME280;42558;52.388;13.390;2023-04-04T00:34:06;102613.34;;;-1.57;88.97
56681;BME280;42558;52.388;13.390;2023-04-04T00:36:36;102616.94;;;-1.60;89.05
56681;BME280;42558;52.388;13.390;2023-04-04T00:39:06;102618.47;;;-1.66;89.13
56681;BME280;42558;52.388;13.390;2023-04-04T00:41:36;102618.98;;;-1.68;89.71
56681;BME280;42558;52.388;13.390;2023-04-04T00:44:07;102619.39;;;-1.67;89.98
56681;BME280;42558;52.388;13.390;2023-04-04T00:46:36;102616.13;;;-1.68;89.88
56681;BME280;42558;52.388;13.390;2023-04-04T00:49:06;102615.35;;;-1.73;89.93
56681;BME280;42558;52.388;13.390;2023-04-04T00:51:36;102612.90;;;-1.79;90.04
56681;BME280;42558;52.388;13.390;2023-04-04T00:54:06;102610.98;;;-1.83;90.51
56681;BME280;42558;52.388;13.390;2023-04-04T00:56:38;102607.29;;;-1.83;90.76
56681;BME280;42558;52.388;13.390;2023-04-04T00:59:07;102606.93;;;-1.82;91.12
56681;BME280;42558;52.388;13.390;2023-04-04T01:01:36;102606.98;;;-1.85;90.83
56681;BME280;42558;52.388;13.390;2023-04-04T01:04:05;102603.39;;;-1.91;91.04
56681;BME280;42558;52.388;13.390;2023-04-04T01:06:33;102603.04;;;-1.93;91.31
56681;BME280;42558;52.388;13.390;2023-04-04T01:09:02;102605.65;;;-1.96;91.45
56681;BME280;42558;52.388;13.390;2023-04-04T01:11:30;102603.66;;;-1.97;91.83
56681;BME280;42558;52.388;13.390;2023-04-04T01:13:58;102602.02;;;-1.98;92.24
56681;BME280;42558;52.388;13.390;2023-04-04T01:16:26;102603.13;;;-1.99;92.21
56681;BME280;42558;52.388;13.390;2023-04-04T01:18:55;102599.52;;;-1.99;92.21
56681;BME280;42558;52.388;13.390;2023-04-04T01:21:25;102600.88;;;-2.01;92.36
56681;BME280;42558;52.388;13.390;2023-04-04T01:24:01;102597.47;;;-2.04;92.50
56681;BME280;42558;52.388;13.390;2023-04-04T01:26:30;102598.13;;;-2.06;92.65
56681;BME280;42558;52.388;13.390;2023-04-04T01:28:59;102594.65;;;-2.10;93.05
56681;BME280;42558;52.388;13.390;2023-04-04T01:31:40;102590.66;;;-2.14;93.21
56681;BME280;42558;52.388;13.390;2023-04-04T01:34:41;102592.47;;;-2.12;93.59
56681;BME280;42558;52.388;13.390;2023-04-04T01:37:29;102583.95;;;-2.14;93.40
56681;BME280;42558;52.388;13.390;2023-04-04T01:40:26;102583.51;;;-2.13;93.69
56681;BME280;42558;52.388;13.390;2023-04-04T01:42:56;102583.54;;;-2.11;93.49
56681;BME280;42558;52.388;13.390;2023-04-04T01:45:27;102584.72;;;-2.11;93.61
56681;BME280;42558;52.388;13.390;2023-04-04T01:47:57;102583.02;;;-2.11;93.54
56681;BME280;42558;52.388;13.390;2023-04-04T01:50:27;102585.15;;;-2.14;93.41
56681;BME280;42558;52.388;13.390;2023-04-04T01:52:57;102579.62;;;-2.18;93.79
56681;BME280;42558;52.388;13.390;2023-04-04T01:55:27;102578.11;;;-2.16;93.95
56681;BME280;42558;52.388;13.390;2023-04-04T01:57:57;102577.91;;;-2.18;93.75
56681;BME280;42558;52.388;13.390;2023-04-04T02:00:27;102571.16;;;-2.18;94.04
56681;BME280;42558;52.388;13.390;2023-04-04T02:02:57;102566.13;;;-2.22;94.04
56681;BME280;42558;52.388;13.390;2023-04-04T02:05:27;102565.33;;;-2.24;94.15
56681;BME280;42558;52.388;13.390;2023-04-04T02:07:57;102561.04;;;-2.27;94.27
56681;BME280;42558;52.388;13.390;2023-04-04T02:10:28;102559.67;;;-2.30;94.46
56681;BME280;42558;52.388;13.390;2023-04-04T02:12:58;102557.77;;;-2.34;94.55
56681;BME280;42558;52.388;13.390;2023-04-04T02:15:28;102562.49;;;-2.39;95.12
56681;BME280;42558;52.388;13.390;2023-04-04T02:17:58;102559.27;;;-2.38;95.23
56681;BME280;42558;52.388;13.390;2023-04-04T02:20:28;102565.32;;;-2.38;95.31
56681;BME280;42558;52.388;13.390;2023-04-04T02:22:58;102566.91;;;-2.39;95.43
56681;BME280;42558;52.388;13.390;2023-04-04T02:25:28;102561.16;;;-2.40;95.58
56681;BME280;42558;52.388;13.390;2023-04-04T02:27:57;102563.38;;;-2.46;95.75
56681;BME280;42558;52.388;13.390;2023-04-04T02:30:27;102558.94;;;-2.48;96.00
56681;BME280;42558;52.388;13.390;2023-04-04T02:32:57;102555.96;;;-2.50;95.88
56681;BME280;42558;52.388;13.390;2023-04-04T02:35:27;102557.20;;;-2.52;96.15
56681;BME280;42558;52.388;13.390;2023-04-04T02:37:57;102555.92;;;-2.52;96.25
56681;BME280;42558;52.388;13.390;2023-04-04T02:40:27;102552.90;;;-2.53;96.32
56681;BME280;42558;52.388;13.390;2023-04-04T02:42:56;102553.71;;;-2.55;96.42
56681;BME280;42558;52.388;13.390;2023-04-04T02:45:24;102550.58;;;-2.58;96.48
56681;BME280;42558;52.388;13.390;2023-04-04T02:47:53;102551.59;;;-2.59;96.64
56681;BME280;42558;52.388;13.390;2023-04-04T02:50:21;102545.28;;;-2.64;96.35
56681;BME280;42558;52.388;13.390;2023-04-04T02:52:50;102544.54;;;-2.68;96.51
56681;BME280;42558;52.388;13.390;2023-04-04T02:55:18;102543.16;;;-2.72;96.59
56681;BME280;42558;52.388;13.390;2023-04-04T02:57:50;102538.58;;;-2.77;96.46
56681;BME280;42558;52.388;13.390;2023-04-04T03:00:19;102535.14;;;-2.79;96.74
56681;BME280;42558;52.388;13.390;2023-04-04T03:02:55;102536.95;;;-2.83;97.04
56681;BME280;42558;52.388;13.390;2023-04-04T03:05:26;102535.11;;;-2.86;97.06
56681;BME280;42558;52.388;13.390;2023-04-04T03:07:57;102531.05;;;-2.90;97.10
56681;BME280;42558;52.388;13.390;2023-04-04T03:10:28;102530.63;;;-2.91;97.24
56681;BME280;42558;52.388;13.390;2023-04-04T03:12:58;102527.85;;;-2.93;97.58
56681;BME280;42558;52.388;13.390;2023-04-04T03:15:27;102527.48;;;-2.95;97.69
56681;BME280;42558;52.388;13.390;2023-04-04T03:17:58;102525.61;;;-2.99;97.99
56681;BME280;42558;52.388;13.390;2023-04-04T03:20:28;102523.27;;;-3.02;98.42
56681;BME280;42558;52.388;13.390;2023-04-04T03:22:58;102518.45;;;-3.04;98.39
56681;BME280;42558;52.388;13.390;2023-04-04T03:25:28;102517.91;;;-3.04;98.64
56681;BME280;42558;52.388;13.390;2023-04-04T03:28:09;102516.91;;;-3.04;99.10
56681;BME280;42558;52.388;13.390;2023-04-04T03:30:39;102514.33;;;-3.04;99.24
56681;BME280;42558;52.388;13.390;2023-04-04T03:33:07;102518.72;;;-3.03;99.41
56681;BME280;42558;52.388;13.390;2023-04-04T03:35:38;102516.12;;;-3.03;99.56
56681;BME280;42558;52.388;13.390;2023-04-04T03:38:08;102514.98;;;-3.02;99.86
56681;BME280;42558;52.388;13.390;2023-04-04T03:40:36;102515.33;;;-3.04;99.85
56681;BME280;42558;52.388;13.390;2023-04-04T03:43:08;102514.55;;;-3.05;100.00
56681;BME280;42558;52.388;13.390;2023-04-04T03:45:36;102512.70;;;-3.05;100.00
56681;BME280;42558;52.388;13.390;2023-04-04T03:48:05;102508.80;;;-3.00;100.00
56681;BME280;42558;52.388;13.390;2023-04-04T03:50:34;102504.75;;;-2.97;100.00
56681;BME280;42558;52.388;13.390;2023-04-04T03:53:04;102502.04;;;-2.97;100.00
56681;BME280;42558;52.388;13.390;2023-04-04T03:55:33;102497.60;;;-3.00;100.00
56681;BME280;42558;52.388;13.390;2023-04-04T03:58:01;102494.89;;;-3.00;100.00
56681;BME280;42558;52.388;13.390;2023-04-04T04:00:31;102489.81;;;-3.03;100.00
56681;BME280;42558;52.388;13.390;2023-04-04T04:03:01;102491.98;;;-3.00;100.00
56681;BME280;42558;52.388;13.390;2023-04-04T04:05:31;102488.73;;;-2.99;100.00
56681;BME280;42558;52.388;13.390;2023-04-04T04:08:01;102487.73;;;-2.99;100.00
56681;BME280;42558;52.388;13.390;2023-04-04T04:10:33;102489.42;;;-3.01;100.00
56681;BME280;42558;52.388;13.390;2023-04-04T04:13:02;102489.94;;;-3.01;100.00
56681;BME280;42558;52.388;13.390;2023-04-04T04:15:31;102491.27;;;-3.06;100.00
56681;BME280;42558;52.388;13.390;2023-04-04T04:18:01;102497.29;;;-3.06;100.00
56681;BME280;42558;52.388;13.390;2023-04-04T04:20:32;102491.67;;;-3.10;100.00
56681;BME280;42558;52.388;13.390;2023-04-04T04:23:02;102493.54;;;-3.14;100.00
56681;BME280;42558;52.388;13.390;2023-04-04T04:25:31;102494.96;;;-3.12;100.00
56681;BME280;42558;52.388;13.390;2023-04-04T04:28:01;102501.27;;;-3.12;100.00
56681;BME280;42558;52.388;13.390;2023-04-04T04:30:31;102496.37;;;-3.13;100.00
56681;BME280;42558;52.388;13.390;2023-04-04T04:33:01;102494.48;;;-3.13;100.00
56681;BME280;42558;52.388;13.390;2023-04-04T04:35:35;102499.27;;;-3.14;100.00
56681;BME280;42558;52.388;13.390;2023-04-04T04:38:05;102499.07;;;-3.14;100.00
56681;BME280;42558;52.388;13.390;2023-04-04T04:40:35;102501.31;;;-3.14;100.00
56681;BME280;42558;52.388;13.390;2023-04-04T04:43:05;102502.70;;;-3.15;100.00
56681;BME280;42558;52.388;13.390;2023-04-04T04:45:35;102502.17;;;-3.17;100.00
56681;BME280;42558;52.388;13.390;2023-04-04T04:48:05;102505.48;;;-3.19;100.00
56681;BME280;42558;52.388;13.390;2023-04-04T04:50:35;102506.41;;;-3.22;100.00
56681;BME280;42558;52.388;13.390;2023-04-04T04:53:05;102508.88;;;-3.22;100.00
56681;BME280;42558;52.388;13.390;2023-04-04T04:55:36;102509.23;;;-3.21;100.00
56681;BME280;42558;52.388;13.390;2023-04-04T04:58:06;102510.85;;;-3.17;100.00
56681;BME280;42558;52.388;13.390;2023-04-04T05:00:37;102515.11;;;-3.13;100.00
56681;BME280;42558;52.388;13.390;2023-04-04T05:03:06;102515.05;;;-3.11;100.00
56681;BME280;42558;52.388;13.390;2023-04-04T05:05:37;102515.95;;;-3.14;100.00
56681;BME280;42558;52.388;13.390;2023-04-04T05:08:06;102516.58;;;-3.13;100.00
56681;BME280;42558;52.388;13.390;2023-04-04T05:10:36;102511.69;;;-3.12;100.00
56681;BME280;42558;52.388;13.390;2023-04-04T05:13:06;102516.09;;;-3.09;100.00
56681;BME280;42558;52.388;13.390;2023-04-04T05:15:37;102518.36;;;-3.03;100.00
56681;BME280;42558;52.388;13.390;2023-04-04T05:18:07;102520.77;;;-2.99;100.00
56681;BME280;42558;52.388;13.390;2023-04-04T05:20:37;102519.38;;;-2.94;100.00
56681;BME280;42558;52.388;13.390;2023-04-04T05:23:07;102524.95;;;-2.91;100.00
56681;BME280;42558;52.388;13.390;2023-04-04T05:25:37;102528.86;;;-2.90;100.00
56681;BME280;42558;52.388;13.390;2023-04-04T05:28:07;102531.09;;;-2.85;100.00
56681;BME280;42558;52.388;13.390;2023-04-04T05:30:37;102536.39;;;-2.83;100.00
56681;BME280;42558;52.388;13.390;2023-04-04T05:33:07;102537.50;;;-2.70;100.00
56681;BME280;42558;52.388;13.390;2023-04-04T05:35:37;102534.29;;;-2.64;100.00
56681;BME280;42558;52.388;13.390;2023-04-04T05:38:07;102533.80;;;-2.58;100.00
56681;BME280;42558;52.388;13.390;2023-04-04T05:40:37;102533.18;;;-2.50;100.00
56681;BME280;42558;52.388;13.390;2023-04-04T05:43:07;102534.65;;;-2.40;100.00
56681;BME280;42558;52.388;13.390;2023-04-04T05:45:38;102530.63;;;-2.33;100.00
56681;BME280;42558;52.388;13.390;2023-04-04T05:48:08;102532.20;;;-2.20;100.00
56681;BME280;42558;52.388;13.390;2023-04-04T05:50:38;102534.76;;;-2.11;99.88
56681;BME280;42558;52.388;13.390;2023-04-04T05:53:08;102533.98;;;-2.05;98.78
56681;BME280;42558;52.388;13.390;2023-04-04T05:55:38;102531.95;;;-1.95;98.69
56681;BME280;42558;52.388;13.390;2023-04-04T05:58:08;102534.59;;;-1.74;98.58
56681;BME280;42558;52.388;13.390;2023-04-04T06:00:38;102536.29;;;-1.67;97.16
56681;BME280;42558;52.388;13.390;2023-04-04T06:03:08;102536.47;;;-1.59;96.59
56681;BME280;42558;52.388;13.390;2023-04-04T06:05:42;102536.96;;;-1.44;96.04
56681;BME280;42558;52.388;13.390;2023-04-04T06:08:10;102539.08;;;-1.30;95.26
56681;BME280;42558;52.388;13.390;2023-04-04T06:10:40;102535.83;;;-1.24;94.05
56681;BME280;42558;52.388;13.390;2023-04-04T06:13:10;102532.32;;;-1.09;93.64
56681;BME280;42558;52.388;13.390;2023-04-04T06:15:40;102532.64;;;-0.90;92.34
56681;BME280;42558;52.388;13.390;2023-04-04T06:18:09;102532.67;;;-0.74;91.40
56681;BME280;42558;52.388;13.390;2023-04-04T06:20:37;102531.98;;;-0.60;90.13
56681;BME280;42558;52.388;13.390;2023-04-04T06:23:06;102533.96;;;-0.45;89.76
56681;BME280;42558;52.388;13.390;2023-04-04T06:25:35;102532.31;;;-0.26;88.50
56681;BME280;42558;52.388;13.390;2023-04-04T06:28:03;102530.70;;;0.04;87.62
56681;BME280;42558;52.388;13.390;2023-04-04T06:30:35;102528.58;;;0.11;85.63
56681;BME280;42558;52.388;13.390;2023-04-04T06:33:05;102529.88;;;0.09;84.24
56681;BME280;42558;52.388;13.390;2023-04-04T06:35:34;102532.14;;;0.27;83.80
56681;BME280;42558;52.388;13.390;2023-04-04T06:38:02;102535.60;;;0.46;81.84
56681;BME280;42558;52.388;13.390;2023-04-04T06:40:35;102535.63;;;0.54;80.81
56681;BME280;42558;52.388;13.390;2023-04-04T06:43:04;102537.02;;;0.82;81.27
56681;BME280;42558;52.388;13.390;2023-04-04T06:45:34;102534.19;;;1.01;80.03
56681;BME280;42558;52.388;13.390;2023-04-04T06:48:04;102532.52;;;1.05;78.37
56681;BME280;42558;52.388;13.390;2023-04-04T06:50:35;102530.94;;;1.25;77.93
56681;BME280;42558;52.388;13.390;2023-04-04T06:53:05;102527.30;;;1.25;77.42
56681;BME280;42558;52.388;13.390;2023-04-04T06:55:35;102534.80;;;1.60;76.76
56681;BME280;42558;52.388;13.390;2023-04-04T06:58:05;102527.81;;;1.66;75.28
56681;BME280;42558;52.388;13.390;2023-04-04T07:00:35;102526.60;;;1.44;74.37
56681;BME280;42558;52.388;13.390;2023-04-04T07:03:06;102532.91;;;1.08;74.53
56681;BME280;42558;52.388;13.390;2023-04-04T07:05:36;102529.40;;;1.21;74.65
56681;BME280;42558;52.388;13.390;2023-04-04T07:08:08;102523.85;;;1.49;74.40
56681;BME280;42558;52.388;13.390;2023-04-04T07:10:39;102521.79;;;1.89;73.01
56681;BME280;42558;52.388;13.390;2023-04-04T07:13:10;102523.38;;;2.01;71.51
56681;BME280;42558;52.388;13.390;2023-04-04T07:15:40;102520.25;;;1.79;71.58
56681;BME280;42558;52.388;13.390;2023-04-04T07:18:15;102517.41;;;2.20;71.37
56681;BME280;42558;52.388;13.390;2023-04-04T07:20:45;102515.52;;;2.30;70.91
56681;BME280;42558;52.388;13.390;2023-04-04T07:23:16;102515.52;;;1.87;70.86
56681;BME280;42558;52.388;13.390;2023-04-04T07:25:46;102513.83;;;2.28;71.66
56681;BME280;42558;52.388;13.390;2023-04-04T07:28:16;102513.84;;;2.78;70.57
56681;BME280;42558;52.388;13.390;2023-04-04T07:30:46;102507.08;;;3.06;69.44
56681;BME280;42558;52.388;13.390;2023-04-04T07:33:15;102504.85;;;3.29;68.42
56681;BME280;42558;52.388;13.390;2023-04-04T07:35:45;102499.29;;;2.66;67.94
56681;BME280;42558;52.388;13.390;2023-04-04T07:38:15;102498.67;;;2.44;69.22
56681;BME280;42558;52.388;13.390;2023-04-04T07:40:48;102503.90;;;2.21;70.05
56681;BME280;42558;52.388;13.390;2023-04-04T07:43:18;102498.19;;;2.42;69.39
56681;BME280;42558;52.388;13.390;2023-04-04T07:45:48;102499.48;;;2.53;71.10
56681;BME280;42558;52.388;13.390;2023-04-04T07:48:18;102500.59;;;2.56;67.99
56681;BME280;42558;52.388;13.390;2023-04-04T07:50:51;102498.63;;;2.50;68.95
56681;BME280;42558;52.388;13.390;2023-04-04T07:53:21;102492.27;;;3.48;68.74
56681;BME280;42558;52.388;13.390;2023-04-04T07:55:52;102490.11;;;3.97;64.24
56681;BME280;42558;52.388;13.390;2023-04-04T07:58:21;102493.94;;;2.67;64.27
56681;BME280;42558;52.388;13.390;2023-04-04T08:00:51;102494.59;;;2.38;66.20
56681;BME280;42558;52.388;13.390;2023-04-04T08:03:21;102483.11;;;2.92;63.97
56681;BME280;42558;52.388;13.390;2023-04-04T08:05:52;102488.54;;;2.86;64.00
56681;BME280;42558;52.388;13.390;2023-04-04T08:08:22;102482.98;;;3.10;64.35
56681;BME280;42558;52.388;13.390;2023-04-04T08:10:52;102485.31;;;3.18;63.12
56681;BME280;42558;52.388;13.390;2023-04-04T08:13:22;102483.29;;;3.44;63.19
56681;BME280;42558;52.388;13.390;2023-04-04T08:15:52;102478.77;;;2.95;65.23
56681;BME280;42558;52.388;13.390;2023-04-04T08:18:22;102473.45;;;4.06;63.04
56681;BME280;42558;52.388;13.390;2023-04-04T08:20:51;102463.92;;;4.53;61.03
56681;BME280;42558;52.388;13.390;2023-04-04T08:23:21;102464.39;;;4.90;60.67
56681;BME280;42558;52.388;13.390;2023-04-04T08:25:51;102459.91;;;5.29;54.21
56681;BME280;42558;52.388;13.390;2023-04-04T08:28:21;102458.34;;;5.04;54.69
56681;BME280;42558;52.388;13.390;2023-04-04T08:30:52;102452.64;;;4.97;54.08
56681;BME280;42558;52.388;13.390;2023-04-04T08:33:23;102455.27;;;5.28;57.08
56681;BME280;42558;52.388;13.390;2023-04-04T08:36:03;102451.73;;;5.41;56.19
56681;BME280;42558;52.388;13.390;2023-04-04T08:38:33;102450.90;;;5.53;56.56
56681;BME280;42558;52.388;13.390;2023-04-04T08:41:03;102452.23;;;5.60;55.37
56681;BME280;42558;52.388;13.390;2023-04-04T08:43:34;102454.62;;;4.71;56.56
56681;BME280;42558;52.388;13.390;2023-04-04T08:46:08;102451.73;;;5.05;55.53
56681;BME280;42558;52.388;13.390;2023-04-04T08:48:41;102447.83;;;5.23;53.84
56681;BME280;42558;52.388;13.390;2023-04-04T08:51:16;102444.80;;;5.96;54.58
56681;BME280;42558;52.388;13.390;2023-04-04T08:53:48;102444.89;;;6.06;51.64
56681;BME280;42558;52.388;13.390;2023-04-04T08:56:17;102445.33;;;6.23;52.09
56681;BME280;42558;52.388;13.390;2023-04-04T08:58:48;102442.81;;;6.31;52.68
56681;BME280;42558;52.388;13.390;2023-04-04T09:01:18;102443.72;;;6.16;52.06
56681;BME280;42558;52.388;13.390;2023-04-04T09:03:49;102440.02;;;6.27;52.62
56681;BME280;42558;52.388;13.390;2023-04-04T09:06:19;102434.90;;;6.82;49.19
56681;BME280;42558;52.388;13.390;2023-04-04T09:08:47;102437.14;;;6.23;50.25
56681;BME280;42558;52.388;13.390;2023-04-04T09:11:19;102434.07;;;6.15;49.55
56681;BME280;42558;52.388;13.390;2023-04-04T09:13:50;102435.36;;;5.76;50.09
56681;BME280;42558;52.388;13.390;2023-04-04T09:16:21;102433.22;;;6.13;50.77
56681;BME280;42558;52.388;13.390;2023-04-04T09:18:51;102428.10;;;6.30;49.04
56681;BME280;42558;52.388;13.390;2023-04-04T09:21:21;102429.61;;;6.84;50.56
56681;BME280;42558;52.388;13.390;2023-04-04T09:24:00;102424.15;;;7.25;46.94
56681;BME280;42558;52.388;13.390;2023-04-04T09:26:51;102415.41;;;6.34;46.80
56681;BME280;42558;52.388;13.390;2023-04-04T09:29:21;102416.56;;;6.39;48.32
56681;BME280;42558;52.388;13.390;2023-04-04T09:31:51;102418.91;;;6.16;47.73
56681;BME280;42558;52.388;13.390;2023-04-04T09:34:21;102422.42;;;5.90;48.52
56681;BME280;42558;52.388;13.390;2023-04-04T09:36:52;102423.06;;;4.98;49.94
56681;BME280;42558;52.388;13.390;2023-04-04T09:39:22;102422.44;;;5.73;50.86
56681;BME280;42558;52.388;13.390;2023-04-04T09:41:52;102420.31;;;6.31;48.51
56681;BME280;42558;52.388;13.390;2023-04-04T09:44:24;102417.22;;;6.94;46.85
56681;BME280;42558;52.388;13.390;2023-04-04T09:47:24;102416.49;;;6.59;46.40
56681;BME280;42558;52.388;13.390;2023-04-04T09:50:02;102418.41;;;6.29;48.93
56681;BME280;42558;52.388;13.390;2023-04-04T09:52:33;102411.55;;;7.78;48.15
56681;BME280;42558;52.388;13.390;2023-04-04T09:55:05;102405.21;;;7.88;45.31
56681;BME280;42558;52.388;13.390;2023-04-04T09:57:35;102400.80;;;7.80;45.40
56681;BME280;42558;52.388;13.390;2023-04-04T10:00:07;102397.83;;;8.54;44.87
56681;BME280;42558;52.388;13.390;2023-04-04T10:02:45;102400.70;;;8.62;44.88
56681;BME280;42558;52.388;13.390;2023-04-04T10:05:16;102395.55;;;7.98;44.10
56681;BME280;42558;52.388;13.390;2023-04-04T10:07:46;102397.17;;;6.90;44.19
56681;BME280;42558;52.388;13.390;2023-04-04T10:10:16;102399.95;;;7.30;46.07
56681;BME280;42558;52.388;13.390;2023-04-04T10:12:46;102386.35;;;7.99;46.67
56681;BME280;42558;52.388;13.390;2023-04-04T10:15:16;102396.00;;;7.32;46.04
56681;BME280;42558;52.388;13.390;2023-04-04T10:17:48;102397.87;;;6.58;47.08
56681;BME280;42558;52.388;13.390;2023-04-04T10:20:22;102401.41;;;5.98;48.99
56681;BME280;42558;52.388;13.390;2023-04-04T10:22:52;102398.44;;;5.92;49.02
56681;BME280;42558;52.388;13.390;2023-04-04T10:25:20;102394.16;;;6.25;48.96
56681;BME280;42558;52.388;13.390;2023-04-04T10:27:48;102397.70;;;6.24;48.34
56681;BME280;42558;52.388;13.390;2023-04-04T10:30:20;102396.13;;;6.51;49.12
56681;BME280;42558;52.388;13.390;2023-04-04T10:33:09;102396.48;;;5.91;48.03
56681;BME280;42558;52.388;13.390;2023-04-04T10:35:48;102399.68;;;5.94;49.63
56681;BME280;42558;52.388;13.390;2023-04-04T10:38:27;102396.96;;;6.85;50.61
56681;BME280;42558;52.388;13.390;2023-04-04T10:40:59;102390.49;;;6.44;46.80
56681;BME280;42558;52.388;13.390;2023-04-04T10:43:31;102391.12;;;6.40;48.16
56681;BME280;42558;52.388;13.390;2023-04-04T10:46:17;102389.62;;;6.08;47.99
56681;BME280;42558;52.388;13.390;2023-04-04T10:48:49;102392.96;;;5.58;49.70
56681;BME280;42558;52.388;13.390;2023-04-04T10:51:19;102387.11;;;5.65;47.89
56681;BME280;42558;52.388;13.390;2023-04-04T10:53:50;102388.40;;;5.47;49.00
56681;BME280;42558;52.388;13.390;2023-04-04T10:56:22;102383.23;;;5.74;48.71
56681;BME280;42558;52.388;13.390;2023-04-04T10:59:11;102378.10;;;5.87;47.34
56681;BME280;42558;52.388;13.390;2023-04-04T11:01:59;102371.20;;;5.88;47.06
56681;BME280;42558;52.388;13.390;2023-04-04T11:04:37;102364.78;;;5.98;47.72
56681;BME280;42558;52.388;13.390;2023-04-04T11:07:14;102360.34;;;5.88;48.72
56681;BME280;42558;52.388;13.390;2023-04-04T11:12:31;102351.59;;;5.58;47.08
56681;BME280;42558;52.388;13.390;2023-04-04T11:15:07;102352.88;;;5.77;49.16
56681;BME280;42558;52.388;13.390;2023-04-04T11:20:27;102345.81;;;6.93;45.53
56681;BME280;42558;52.388;13.390;2023-04-04T11:23:17;102342.06;;;7.41;46.19
56681;BME280;42558;52.388;13.390;2023-04-04T11:25:56;102344.02;;;6.48;45.00
56681;BME280;42558;52.388;13.390;2023-04-04T11:34:13;102341.95;;;7.42;46.92
56681;BME280;42558;52.388;13.390;2023-04-04T11:39:46;102331.11;;;6.60;44.79
56681;BME280;42558;52.388;13.390;2023-04-04T11:42:19;102323.46;;;7.16;43.83
56681;BME280;42558;52.388;13.390;2023-04-04T11:47:22;102315.67;;;6.50;43.47
56681;BME280;42558;52.388;13.390;2023-04-04T11:49:54;102319.65;;;6.18;44.23
56681;BME280;42558;52.388;13.390;2023-04-04T11:52:25;102314.60;;;6.06;45.31
56681;BME280;42558;52.388;13.390;2023-04-04T11:54:54;102311.02;;;6.04;45.52
56681;BME280;42558;52.388;13.390;2023-04-04T11:57:24;102307.73;;;5.90;45.81
56681;BME280;42558;52.388;13.390;2023-04-04T11:59:54;102306.09;;;5.82;46.79
56681;BME280;42558;52.388;13.390;2023-04-04T12:02:26;102303.87;;;5.74;47.17
56681;BME280;42558;52.388;13.390;2023-04-04T12:04:57;102297.02;;;6.70;44.54
56681;BME280;42558;52.388;13.390;2023-04-04T12:07:28;102288.39;;;6.85;42.73
56681;BME280;42558;52.388;13.390;2023-04-04T12:09:56;102276.58;;;7.26;42.66
56681;BME280;42558;52.388;13.390;2023-04-04T12:12:25;102271.72;;;7.51;41.94
56681;BME280;42558;52.388;13.390;2023-04-04T12:14:56;102272.27;;;6.78;43.13
56681;BME280;42558;52.388;13.390;2023-04-04T12:17:45;102277.45;;;7.61;42.72
56681;BME280;42558;52.388;13.390;2023-04-04T12:20:22;102278.89;;;6.58;42.62
56681;BME280;42558;52.388;13.390;2023-04-04T12:22:52;102276.13;;;6.07;43.07
56681;BME280;42558;52.388;13.390;2023-04-04T12:25:23;102274.16;;;5.86;44.50
56681;BME280;42558;52.388;13.390;2023-04-04T12:27:55;102277.19;;;6.17;44.40
56681;BME280;42558;52.388;13.390;2023-04-04T12:30:25;102271.63;;;6.27;43.00
56681;BME280;42558;52.388;13.390;2023-04-04T12:32:56;102273.31;;;6.45;43.18
56681;BME280;42558;52.388;13.390;2023-04-04T12:35:26;102265.27;;;6.68;43.11
56681;BME280;42558;52.388;13.390;2023-04-04T12:38:05;102253.73;;;6.80;43.29
56681;BME280;42558;52.388;13.390;2023-04-04T12:40:39;102243.86;;;7.23;42.84
56681;BME280;42558;52.388;13.390;2023-04-04T12:43:16;102239.04;;;7.07;41.35
56681;BME280;42558;52.388;13.390;2023-04-04T12:45:49;102237.08;;;7.20;43.82
56681;BME280;42558;52.388;13.390;2023-04-04T12:48:27;102237.36;;;7.12;42.42
56681;BME280;42558;52.388;13.390;2023-04-04T12:50:57;102232.52;;;6.79;41.84
56681;BME280;42558;52.388;13.390;2023-04-04T12:53:27;102236.02;;;6.73;42.66
56681;BME280;42558;52.388;13.390;2023-04-04T12:56:04;102235.38;;;6.67;43.08
56681;BME280;42558;52.388;13.390;2023-04-04T12:58:32;102236.16;;;6.76;43.41
56681;BME280;42558;52.388;13.390;2023-04-04T13:01:03;102229.69;;;6.89;41.87
56681;BME280;42558;52.388;13.390;2023-04-04T13:03:33;102222.29;;;6.88;42.28
56681;BME280;42558;52.388;13.390;2023-04-04T13:06:02;102219.17;;;6.88;42.16
56681;BME280;42558;52.388;13.390;2023-04-04T13:08:30;102218.04;;;6.83;42.41
56681;BME280;42558;52.388;13.390;2023-04-04T13:11:05;102223.17;;;6.42;42.76
56681;BME280;42558;52.388;13.390;2023-04-04T13:13:40;102222.45;;;6.44;43.18
56681;BME280;42558;52.388;13.390;2023-04-04T13:16:32;102214.15;;;6.62;42.47
56681;BME280;42558;52.388;13.390;2023-04-04T13:19:04;102207.08;;;7.04;42.08
56681;BME280;42558;52.388;13.390;2023-04-04T13:21:34;102204.98;;;7.21;41.26